createdAt,value
2023-11-12T00:00:20.892Z,4.40
2023-11-12T00:05:25.990Z,4.35
2023-11-12T00:10:29.803Z,4.25
2023-11-12T00:15:33.681Z,4.10
2023-11-12T00:20:38.769Z,4.40
2023-11-12T00:25:42.987Z,4.40
2023-11-12T00:30:49.260Z,4.72
2023-11-12T00:35:54.391Z,4.17
2023-11-12T00:40:58.182Z,4.40
2023-11-12T00:46:02.730Z,4.95
2023-11-12T00:51:07.945Z,4.30
2023-11-12T00:56:11.746Z,4.57
2023-11-12T01:01:15.761Z,4.15
2023-11-12T01:06:20.992Z,4.30
2023-11-12T01:11:25.826Z,5.03
2023-11-12T01:16:32.086Z,4.50
2023-11-12T01:21:37.350Z,4.37
2023-11-12T01:26:41.222Z,4.75
2023-11-12T01:31:46.580Z,4.13
2023-11-12T01:36:51.708Z,5.03
2023-11-12T01:41:55.373Z,4.88
2023-11-12T01:46:59.180Z,4.88
2023-11-12T01:52:05.515Z,5.45
2023-11-12T01:57:10.268Z,4.73
2023-11-12T02:02:14.580Z,4.90
2023-11-12T02:07:22.901Z,4.93
2023-11-12T02:12:26.811Z,4.53
2023-11-12T02:17:33.039Z,5.20
2023-11-12T02:22:38.169Z,4.28
2023-11-12T02:27:46.115Z,3.80
2023-11-12T02:32:50.019Z,4.35
2023-11-12T02:37:53.759Z,3.97
2023-11-12T02:42:58.839Z,3.20
2023-11-12T02:48:03.026Z,4.57
2023-11-12T02:53:08.769Z,4.20
2023-11-12T02:58:19.698Z,4.60
2023-11-12T03:03:23.526Z,3.65
2023-11-12T03:08:27.751Z,4.45
2023-11-12T03:13:33.121Z,3.83
2023-11-12T03:18:36.852Z,4.07
2023-11-12T03:23:41.648Z,3.97
2023-11-12T03:28:46.764Z,4.10
2023-11-12T03:33:50.482Z,3.67
2023-11-12T03:38:54.232Z,3.95
2023-11-12T03:43:59.429Z,3.55
2023-11-12T03:49:03.189Z,3.80
2023-11-12T03:54:07.670Z,3.70
2023-11-12T03:59:13.378Z,4.50
2023-11-12T04:04:17.741Z,5.03
2023-11-12T04:09:21.620Z,5.10
2023-11-12T04:14:26.702Z,5.05
2023-11-12T04:19:30.627Z,4.97
2023-11-12T04:24:35.183Z,4.85
2023-11-12T04:29:40.241Z,5.80
2023-11-12T04:34:44.606Z,6.10
2023-11-12T04:39:49.446Z,6.05
2023-11-12T04:44:54.589Z,6.50
2023-11-12T04:49:58.319Z,6.65
2023-11-12T04:55:02.001Z,6.82
2023-11-12T05:00:10.229Z,5.60
2023-11-12T05:05:14.961Z,7.30
2023-11-12T05:10:19.423Z,6.75
2023-11-12T05:15:24.462Z,7.25
2023-11-12T05:20:28.413Z,6.07
2023-11-12T05:25:32.427Z,6.97
2023-11-12T05:30:37.591Z,7.80
2023-11-12T05:35:41.557Z,7.95
2023-11-12T05:40:45.307Z,7.68
2023-11-12T05:45:50.387Z,8.90
2023-11-12T05:50:54.906Z,9.45
2023-11-12T05:55:58.579Z,9.80
2023-11-12T06:01:03.765Z,10.02
2023-11-12T06:06:07.606Z,11.82
2023-11-12T06:11:12.578Z,10.70
2023-11-12T06:16:17.759Z,10.52
2023-11-12T06:21:21.533Z,12.05
2023-11-12T06:26:25.279Z,11.13
2023-11-12T06:31:30.381Z,11.23
2023-11-12T06:36:34.107Z,12.00
2023-11-12T06:41:37.844Z,12.02
2023-11-12T06:46:47.256Z,12.48
2023-11-12T06:51:51.251Z,10.93
2023-11-12T06:56:55.764Z,9.80
2023-11-12T07:02:00.799Z,10.48
2023-11-12T07:07:13.649Z,11.07
2023-11-12T07:12:20.829Z,13.32
2023-11-12T07:17:25.868Z,9.35
2023-11-12T07:22:29.636Z,11.00
2023-11-12T07:27:33.493Z,14.85
2023-11-12T07:32:38.809Z,12.48
2023-11-12T07:37:43.312Z,13.23
2023-11-12T07:42:47.201Z,13.00
2023-11-12T07:47:52.594Z,10.65
2023-11-12T07:52:56.423Z,10.10
2023-11-12T07:58:00.527Z,8.73
2023-11-12T08:03:05.815Z,8.18
2023-11-12T08:08:09.961Z,8.73
2023-11-12T08:13:17.823Z,8.30
2023-11-12T08:18:23.077Z,9.10
2023-11-12T08:23:26.957Z,9.57
2023-11-12T08:28:30.738Z,8.80
2023-11-12T08:33:36.339Z,8.75
2023-11-12T08:38:40.146Z,6.65
2023-11-12T08:43:46.080Z,8.57
2023-11-12T08:48:51.138Z,7.70
2023-11-12T08:53:56.249Z,8.07
2023-11-12T08:59:00.327Z,7.75
2023-11-12T09:04:06.283Z,6.60
2023-11-12T09:09:10.466Z,7.03
2023-11-12T09:14:16.257Z,5.90
2023-11-12T09:19:21.764Z,6.80
2023-11-12T09:24:25.554Z,6.40
2023-11-12T09:29:30.031Z,7.53
2023-11-12T09:34:35.109Z,6.30
2023-11-12T09:39:38.945Z,7.43
2023-11-12T09:44:46.106Z,6.25
2023-11-12T09:49:55.157Z,5.57
2023-11-12T09:55:01.778Z,6.55
2023-11-12T10:00:08.154Z,6.22
2023-11-12T10:05:16.608Z,6.22
2023-11-12T10:10:25.706Z,6.65
2023-11-12T10:15:30.714Z,6.55
2023-11-12T10:20:40.808Z,7.32
2023-11-12T10:25:48.845Z,6.93
2023-11-12T10:30:56.257Z,7.55
2023-11-12T10:36:09.665Z,8.07
2023-11-12T10:41:14.022Z,7.05
2023-11-12T10:46:17.790Z,6.50
2023-11-12T10:51:23.796Z,6.38
2023-11-12T10:56:29.413Z,6.60
2023-11-12T11:01:35.242Z,6.47
2023-11-12T11:06:43.174Z,6.55
2023-11-12T11:11:50.423Z,6.20
2023-11-12T11:16:54.440Z,6.53
2023-11-12T11:22:30.779Z,7.07
2023-11-12T11:27:34.749Z,6.07
2023-11-12T11:32:39.344Z,6.65
2023-11-12T11:38:13.058Z,6.75
2023-11-12T11:43:39.415Z,7.00
2023-11-12T11:49:20.896Z,6.03
2023-11-12T11:54:27.190Z,6.38
2023-11-12T11:59:32.823Z,7.93
2023-11-12T12:04:45.639Z,7.75
2023-11-12T12:09:51.349Z,9.10
2023-11-12T12:14:56.083Z,9.95
2023-11-12T12:19:59.963Z,10.02
2023-11-12T12:25:05.716Z,8.00
2023-11-12T12:30:15.189Z,8.23
2023-11-12T12:35:23.718Z,8.23
2023-11-12T12:40:30.131Z,7.25
2023-11-12T12:45:35.735Z,8.82
2023-11-12T12:50:40.823Z,8.35
2023-11-12T12:55:47.534Z,8.50
2023-11-12T13:00:53.643Z,9.30
2023-11-12T13:05:58.874Z,9.52
2023-11-12T13:11:04.104Z,8.57
2023-11-12T13:16:11.812Z,8.50
2023-11-12T13:21:19.841Z,9.50
2023-11-12T13:26:25.361Z,9.43
2023-11-12T13:31:30.118Z,8.10
2023-11-12T13:36:33.989Z,8.55
2023-11-12T13:41:39.226Z,6.90
2023-11-12T13:46:44.145Z,8.07
2023-11-12T13:51:47.925Z,7.30
2023-11-12T13:56:53.338Z,5.90
2023-11-12T14:01:57.515Z,7.15
2023-11-12T14:07:01.483Z,7.45
2023-11-12T14:12:08.256Z,6.85
2023-11-12T14:17:12.666Z,6.00
2023-11-12T14:22:16.365Z,6.72
2023-11-12T14:27:21.597Z,5.80
2023-11-12T14:32:25.663Z,6.47
2023-11-12T14:37:30.276Z,6.32
2023-11-12T14:42:35.504Z,6.05
2023-11-12T14:47:41.942Z,5.72
2023-11-12T14:52:45.807Z,5.93
2023-11-12T14:57:50.951Z,5.82
2023-11-12T15:02:54.972Z,6.07
2023-11-12T15:08:01.011Z,5.80
2023-11-12T15:13:06.598Z,5.90
2023-11-12T15:18:11.495Z,4.70
2023-11-12T15:23:15.667Z,6.20
2023-11-12T15:28:20.964Z,5.18
2023-11-12T15:33:25.006Z,6.10
2023-11-12T15:38:29.116Z,4.38
2023-11-12T15:43:34.960Z,6.68
2023-11-12T15:48:38.905Z,6.20
2023-11-12T15:53:42.862Z,7.40
2023-11-12T15:58:47.926Z,7.30
2023-11-12T16:03:51.739Z,7.07
2023-11-12T16:08:56.828Z,7.93
2023-11-12T16:14:02.205Z,7.20
2023-11-12T16:19:06.123Z,6.13
2023-11-12T16:24:11.113Z,7.03
2023-11-12T16:29:16.286Z,7.78
2023-11-12T16:34:20.028Z,7.97
2023-11-12T16:39:24.039Z,7.72
2023-11-12T16:44:29.960Z,8.57
2023-11-12T16:49:33.823Z,7.65
2023-11-12T16:54:40.011Z,8.02
2023-11-12T16:59:45.255Z,7.30
2023-11-12T17:04:50.252Z,7.97
2023-11-12T17:09:55.152Z,9.10
2023-11-12T17:15:05.598Z,9.85
2023-11-12T17:20:12.565Z,10.38
2023-11-12T17:30:22.101Z,9.82
2023-11-12T17:35:25.828Z,10.30
2023-11-12T17:40:29.648Z,10.13
2023-11-12T17:45:34.769Z,9.73
2023-11-12T17:50:38.468Z,9.90
2023-11-12T17:55:44.688Z,9.45
2023-11-12T18:00:51.579Z,8.87
2023-11-12T18:05:56.064Z,9.95
2023-11-12T18:11:00.071Z,11.65
2023-11-12T18:16:05.902Z,10.60
2023-11-12T18:21:09.714Z,13.52
2023-11-12T18:26:15.633Z,12.38
2023-11-12T18:31:22.896Z,12.43
2023-11-12T18:36:26.783Z,12.50
2023-11-12T18:41:30.498Z,8.57
2023-11-12T18:46:35.881Z,10.80
2023-11-12T18:51:39.799Z,9.32
2023-11-12T18:56:43.641Z,9.20
2023-11-12T19:01:49.866Z,10.25
2023-11-12T19:06:54.144Z,9.40
2023-11-12T19:11:58.866Z,10.57
2023-11-12T19:17:04.832Z,8.90
2023-11-12T19:22:09.167Z,10.68
2023-11-12T19:27:15.382Z,9.30
2023-11-12T19:32:21.559Z,9.25
2023-11-12T19:37:25.384Z,9.10
2023-11-12T19:42:29.991Z,9.65
2023-11-12T19:47:40.443Z,9.70
2023-11-12T19:52:44.878Z,8.45
2023-11-12T19:57:54.182Z,9.05
2023-11-12T20:03:00.505Z,9.57
2023-11-12T20:08:05.610Z,8.70
2023-11-12T20:13:10.091Z,8.27
2023-11-12T20:18:15.446Z,9.35
2023-11-12T20:23:21.123Z,9.98
2023-11-12T20:28:25.199Z,9.15
2023-11-12T20:33:30.902Z,9.25
2023-11-12T20:38:42.079Z,8.25
2023-11-12T20:43:46.188Z,8.65
2023-11-12T20:48:55.679Z,8.93
2023-11-12T20:53:59.484Z,8.68
2023-11-12T20:59:03.940Z,8.20
2023-11-12T21:04:12.924Z,7.90
2023-11-12T21:09:19.415Z,7.45
2023-11-12T21:14:23.111Z,8.27
2023-11-12T21:19:28.312Z,7.07
2023-11-12T21:24:32.036Z,6.65
2023-11-12T21:29:36.553Z,7.05
2023-11-12T21:34:42.015Z,6.70
2023-11-12T21:39:45.789Z,6.13
2023-11-12T21:44:50.578Z,6.13
2023-11-12T21:49:59.112Z,6.03
2023-11-12T21:55:07.604Z,5.53
2023-11-12T22:00:13.459Z,6.20
2023-11-12T22:05:18.670Z,5.47
2023-11-12T22:10:22.507Z,5.15
2023-11-12T22:15:27.797Z,5.55
2023-11-12T22:20:36.267Z,5.53
2023-11-12T22:25:40.595Z,5.30
2023-11-12T22:30:44.593Z,5.03
2023-11-12T22:35:49.916Z,5.63
2023-11-12T22:40:54.429Z,5.45
2023-11-12T22:45:58.242Z,4.97
2023-11-12T22:51:03.809Z,5.00
2023-11-12T22:56:08.147Z,5.25
2023-11-12T23:01:15.076Z,5.10
2023-11-12T23:11:29.977Z,4.93
2023-11-12T23:16:34.352Z,5.15
2023-11-12T23:21:39.706Z,5.38
2023-11-12T23:26:43.831Z,5.35
2023-11-12T23:31:47.893Z,4.30
2023-11-12T23:36:53.062Z,4.28
2023-11-12T23:41:56.726Z,5.32
2023-11-12T23:47:00.477Z,5.55
2023-11-12T23:52:06.167Z,5.47
2023-11-12T23:57:10.785Z,4.95
